sensor_id;sensor_type;location;lat;lon;timestamp;temperature;humidity
81524;DHT22;70954;49.500;10.416;2023-07-20T00:01:59;20.80;60.70
81524;DHT22;70954;49.500;10.416;2023-07-20T00:04:25;20.80;60.70
81524;DHT22;70954;49.500;10.416;2023-07-20T00:06:50;20.70;60.80
81524;DHT22;70954;49.500;10.416;2023-07-20T00:09:16;20.70;60.90
81524;DHT22;70954;49.500;10.416;2023-07-20T00:11:49;20.70;61.00
81524;DHT22;70954;49.500;10.416;2023-07-20T00:14:14;20.70;61.40
81524;DHT22;70954;49.500;10.416;2023-07-20T00:16:40;20.70;61.20
81524;DHT22;70954;49.500;10.416;2023-07-20T00:19:05;20.60;61.30
81524;DHT22;70954;49.500;10.416;2023-07-20T00:21:31;20.60;61.50
81524;DHT22;70954;49.500;10.416;2023-07-20T00:23:56;20.60;61.40
81524;DHT22;70954;49.500;10.416;2023-07-20T00:26:22;20.60;61.40
81524;DHT22;70954;49.500;10.416;2023-07-20T00:28:49;20.60;61.50
81524;DHT22;70954;49.500;10.416;2023-07-20T00:31:15;20.60;61.60
81524;DHT22;70954;49.500;10.416;2023-07-20T00:33:40;20.60;61.50
81524;DHT22;70954;49.500;10.416;2023-07-20T00:36:06;20.60;61.60
81524;DHT22;70954;49.500;10.416;2023-07-20T00:38:31;20.60;61.60
81524;DHT22;70954;49.500;10.416;2023-07-20T00:40:57;20.60;61.60
81524;DHT22;70954;49.500;10.416;2023-07-20T00:43:22;20.60;61.70
81524;DHT22;70954;49.500;10.416;2023-07-20T00:45:48;20.50;61.70
81524;DHT22;70954;49.500;10.416;2023-07-20T00:48:14;20.60;61.80
81524;DHT22;70954;49.500;10.416;2023-07-20T00:50:40;20.50;62.00
81524;DHT22;70954;49.500;10.416;2023-07-20T00:53:06;20.60;62.00
81524;DHT22;70954;49.500;10.416;2023-07-20T00:55:32;20.50;61.90
81524;DHT22;70954;49.500;10.416;2023-07-20T00:57:59;20.50;62.10
81524;DHT22;70954;49.500;10.416;2023-07-20T01:00:24;20.50;62.10
81524;DHT22;70954;49.500;10.416;2023-07-20T01:02:51;20.50;62.10
81524;DHT22;70954;49.500;10.416;2023-07-20T01:05:16;20.50;62.10
81524;DHT22;70954;49.500;10.416;2023-07-20T01:07:57;20.50;62.20
81524;DHT22;70954;49.500;10.416;2023-07-20T01:10:43;20.50;62.40
81524;DHT22;70954;49.500;10.416;2023-07-20T01:13:10;20.50;62.80
81524;DHT22;70954;49.500;10.416;2023-07-20T01:15:36;20.50;62.10
81524;DHT22;70954;49.500;10.416;2023-07-20T01:18:01;20.40;62.20
81524;DHT22;70954;49.500;10.416;2023-07-20T01:20:28;20.30;62.10
81524;DHT22;70954;49.500;10.416;2023-07-20T01:31:33;20.20;63.20
81524;DHT22;70954;49.500;10.416;2023-07-20T01:34:01;20.10;62.30
81524;DHT22;70954;49.500;10.416;2023-07-20T01:36:29;20.10;62.20
81524;DHT22;70954;49.500;10.416;2023-07-20T01:38:56;20.10;62.40
81524;DHT22;70954;49.500;10.416;2023-07-20T01:41:22;20.00;62.50
81524;DHT22;70954;49.500;10.416;2023-07-20T01:43:48;20.00;62.50
81524;DHT22;70954;49.500;10.416;2023-07-20T01:46:13;20.00;62.60
81524;DHT22;70954;49.500;10.416;2023-07-20T01:48:39;20.00;62.50
81524;DHT22;70954;49.500;10.416;2023-07-20T01:51:05;20.00;62.60
81524;DHT22;70954;49.500;10.416;2023-07-20T01:53:30;20.00;62.60
81524;DHT22;70954;49.500;10.416;2023-07-20T01:55:57;20.00;62.50
81524;DHT22;70954;49.500;10.416;2023-07-20T01:58:22;19.90;62.60
81524;DHT22;70954;49.500;10.416;2023-07-20T02:00:48;19.90;62.50
81524;DHT22;70954;49.500;10.416;2023-07-20T02:03:13;19.90;62.50
81524;DHT22;70954;49.500;10.416;2023-07-20T02:05:39;19.90;62.50
81524;DHT22;70954;49.500;10.416;2023-07-20T02:08:05;19.90;62.50
81524;DHT22;70954;49.500;10.416;2023-07-20T02:10:30;19.80;62.50
81524;DHT22;70954;49.500;10.416;2023-07-20T02:12:56;19.80;62.40
81524;DHT22;70954;49.500;10.416;2023-07-20T02:15:22;19.80;62.50
81524;DHT22;70954;49.500;10.416;2023-07-20T02:17:47;19.70;62.50
81524;DHT22;70954;49.500;10.416;2023-07-20T02:20:13;19.70;62.50
81524;DHT22;70954;49.500;10.416;2023-07-20T02:22:39;19.70;62.50
81524;DHT22;70954;49.500;10.416;2023-07-20T02:25:06;19.70;62.50
81524;DHT22;70954;49.500;10.416;2023-07-20T02:27:31;19.70;62.40
81524;DHT22;70954;49.500;10.416;2023-07-20T02:29:57;19.70;62.40
81524;DHT22;70954;49.500;10.416;2023-07-20T02:32:22;19.70;62.30
81524;DHT22;70954;49.500;10.416;2023-07-20T02:34:48;19.70;62.30
81524;DHT22;70954;49.500;10.416;2023-07-20T02:37:13;19.70;62.30
81524;DHT22;70954;49.500;10.416;2023-07-20T02:39:39;19.70;62.20
81524;DHT22;70954;49.500;10.416;2023-07-20T02:42:05;19.70;62.20
81524;DHT22;70954;49.500;10.416;2023-07-20T02:44:31;19.60;62.10
81524;DHT22;70954;49.500;10.416;2023-07-20T02:46:56;19.60;62.10
81524;DHT22;70954;49.500;10.416;2023-07-20T02:49:22;19.60;62.00
81524;DHT22;70954;49.500;10.416;2023-07-20T02:51:47;19.50;62.00
81524;DHT22;70954;49.500;10.416;2023-07-20T02:54:13;19.50;62.00
81524;DHT22;70954;49.500;10.416;2023-07-20T02:56:38;19.50;62.00
81524;DHT22;70954;49.500;10.416;2023-07-20T02:59:03;19.50;61.90
81524;DHT22;70954;49.500;10.416;2023-07-20T03:01:29;19.50;61.90
81524;DHT22;70954;49.500;10.416;2023-07-20T03:03:55;19.50;61.90
81524;DHT22;70954;49.500;10.416;2023-07-20T03:06:21;19.50;61.90
81524;DHT22;70954;49.500;10.416;2023-07-20T03:08:46;19.50;61.90
81524;DHT22;70954;49.500;10.416;2023-07-20T03:11:12;19.50;62.00
81524;DHT22;70954;49.500;10.416;2023-07-20T03:13:37;19.40;61.80
81524;DHT22;70954;49.500;10.416;2023-07-20T03:16:03;19.40;61.80
81524;DHT22;70954;49.500;10.416;2023-07-20T03:18:28;19.40;61.80
81524;DHT22;70954;49.500;10.416;2023-07-20T03:20:54;19.40;61.70
81524;DHT22;70954;49.500;10.416;2023-07-20T03:23:19;19.40;61.70
81524;DHT22;70954;49.500;10.416;2023-07-20T03:25:44;19.30;61.70
81524;DHT22;70954;49.500;10.416;2023-07-20T03:28:10;19.30;61.70
81524;DHT22;70954;49.500;10.416;2023-07-20T03:30:35;19.30;61.70
81524;DHT22;70954;49.500;10.416;2023-07-20T03:33:01;19.20;61.70
81524;DHT22;70954;49.500;10.416;2023-07-20T03:35:26;19.20;61.70
81524;DHT22;70954;49.500;10.416;2023-07-20T03:37:52;19.20;61.80
81524;DHT22;70954;49.500;10.416;2023-07-20T03:40:17;19.10;61.90
81524;DHT22;70954;49.500;10.416;2023-07-20T03:42:43;19.10;62.00
81524;DHT22;70954;49.500;10.416;2023-07-20T03:45:09;19.10;62.00
81524;DHT22;70954;49.500;10.416;2023-07-20T03:47:34;19.10;62.00
81524;DHT22;70954;49.500;10.416;2023-07-20T03:50:00;19.00;62.00
81524;DHT22;70954;49.500;10.416;2023-07-20T03:52:25;19.00;62.00
81524;DHT22;70954;49.500;10.416;2023-07-20T03:54:50;19.00;61.90
81524;DHT22;70954;49.500;10.416;2023-07-20T03:57:16;19.00;62.00
81524;DHT22;70954;49.500;10.416;2023-07-20T03:59:45;18.90;62.00
81524;DHT22;70954;49.500;10.416;2023-07-20T04:02:11;18.90;62.10
81524;DHT22;70954;49.500;10.416;2023-07-20T04:04:36;18.90;62.10
81524;DHT22;70954;49.500;10.416;2023-07-20T04:07:02;18.80;62.20
81524;DHT22;70954;49.500;10.416;2023-07-20T04:09:27;18.80;62.30
81524;DHT22;70954;49.500;10.416;2023-07-20T04:11:52;18.80;62.40
81524;DHT22;70954;49.500;10.416;2023-07-20T04:14:18;18.80;62.50
81524;DHT22;70954;49.500;10.416;2023-07-20T04:16:46;18.80;62.50
81524;DHT22;70954;49.500;10.416;2023-07-20T04:19:12;18.80;62.50
81524;DHT22;70954;49.500;10.416;2023-07-20T04:21:41;18.70;62.70
81524;DHT22;70954;49.500;10.416;2023-07-20T04:24:06;18.80;62.70
81524;DHT22;70954;49.500;10.416;2023-07-20T04:26:32;18.80;62.70
81524;DHT22;70954;49.500;10.416;2023-07-20T04:28:57;18.80;62.90
81524;DHT22;70954;49.500;10.416;2023-07-20T04:31:23;18.80;62.80
81524;DHT22;70954;49.500;10.416;2023-07-20T04:33:48;18.80;62.80
81524;DHT22;70954;49.500;10.416;2023-07-20T04:36:14;18.80;62.80
81524;DHT22;70954;49.500;10.416;2023-07-20T04:38:39;18.80;62.80
81524;DHT22;70954;49.500;10.416;2023-07-20T04:41:05;18.80;62.90
81524;DHT22;70954;49.500;10.416;2023-07-20T04:43:30;18.80;62.90
81524;DHT22;70954;49.500;10.416;2023-07-20T04:45:56;18.80;62.90
81524;DHT22;70954;49.500;10.416;2023-07-20T04:48:21;18.90;62.80
81524;DHT22;70954;49.500;10.416;2023-07-20T04:50:47;18.80;62.70
81524;DHT22;70954;49.500;10.416;2023-07-20T04:53:13;18.80;62.60
81524;DHT22;70954;49.500;10.416;2023-07-20T04:55:39;18.90;62.50
81524;DHT22;70954;49.500;10.416;2023-07-20T04:58:05;18.80;62.60
81524;DHT22;70954;49.500;10.416;2023-07-20T05:00:33;18.80;62.50
81524;DHT22;70954;49.500;10.416;2023-07-20T05:02:59;18.80;62.50
81524;DHT22;70954;49.500;10.416;2023-07-20T05:05:24;18.90;62.50
81524;DHT22;70954;49.500;10.416;2023-07-20T05:07:49;18.90;62.50
81524;DHT22;70954;49.500;10.416;2023-07-20T05:10:15;18.90;62.50
81524;DHT22;70954;49.500;10.416;2023-07-20T05:12:40;18.80;62.50
81524;DHT22;70954;49.500;10.416;2023-07-20T05:15:06;18.80;62.50
81524;DHT22;70954;49.500;10.416;2023-07-20T05:17:32;18.80;62.50
81524;DHT22;70954;49.500;10.416;2023-07-20T05:19:57;18.80;62.50
81524;DHT22;70954;49.500;10.416;2023-07-20T05:22:23;18.90;62.50
81524;DHT22;70954;49.500;10.416;2023-07-20T05:24:48;18.90;62.60
81524;DHT22;70954;49.500;10.416;2023-07-20T05:27:13;18.90;62.50
81524;DHT22;70954;49.500;10.416;2023-07-20T05:29:46;18.90;62.50
81524;DHT22;70954;49.500;10.416;2023-07-20T05:32:12;18.90;62.50
81524;DHT22;70954;49.500;10.416;2023-07-20T05:34:38;19.00;62.30
81524;DHT22;70954;49.500;10.416;2023-07-20T05:37:04;19.00;62.40
81524;DHT22;70954;49.500;10.416;2023-07-20T05:39:31;19.10;62.30
81524;DHT22;70954;49.500;10.416;2023-07-20T05:41:57;19.10;62.20
81524;DHT22;70954;49.500;10.416;2023-07-20T05:44:22;19.10;62.10
81524;DHT22;70954;49.500;10.416;2023-07-20T05:46:48;19.10;62.20
81524;DHT22;70954;49.500;10.416;2023-07-20T05:49:13;19.20;62.20
81524;DHT22;70954;49.500;10.416;2023-07-20T05:51:39;19.20;62.10
81524;DHT22;70954;49.500;10.416;2023-07-20T05:54:04;19.20;62.20
81524;DHT22;70954;49.500;10.416;2023-07-20T05:56:29;19.20;62.20
81524;DHT22;70954;49.500;10.416;2023-07-20T05:58:55;19.30;62.10
81524;DHT22;70954;49.500;10.416;2023-07-20T06:01:20;19.30;62.10
81524;DHT22;70954;49.500;10.416;2023-07-20T06:03:46;19.30;61.90
81524;DHT22;70954;49.500;10.416;2023-07-20T06:06:11;19.30;61.90
81524;DHT22;70954;49.500;10.416;2023-07-20T06:08:37;19.30;62.00
81524;DHT22;70954;49.500;10.416;2023-07-20T06:11:03;19.40;61.90
81524;DHT22;70954;49.500;10.416;2023-07-20T06:13:28;19.40;61.80
81524;DHT22;70954;49.500;10.416;2023-07-20T06:15:54;19.40;61.80
81524;DHT22;70954;49.500;10.416;2023-07-20T06:18:19;19.50;61.70
81524;DHT22;70954;49.500;10.416;2023-07-20T06:20:49;19.50;61.60
81524;DHT22;70954;49.500;10.416;2023-07-20T06:23:15;19.60;61.50
81524;DHT22;70954;49.500;10.416;2023-07-20T06:25:40;19.70;61.20
81524;DHT22;70954;49.500;10.416;2023-07-20T06:28:05;19.70;60.70
81524;DHT22;70954;49.500;10.416;2023-07-20T06:30:33;19.90;60.20
81524;DHT22;70954;49.500;10.416;2023-07-20T06:32:59;19.90;59.60
81524;DHT22;70954;49.500;10.416;2023-07-20T06:35:25;20.00;59.00
81524;DHT22;70954;49.500;10.416;2023-07-20T06:37:50;20.00;58.90
81524;DHT22;70954;49.500;10.416;2023-07-20T06:40:15;20.00;58.90
81524;DHT22;70954;49.500;10.416;2023-07-20T06:42:41;20.00;58.90
81524;DHT22;70954;49.500;10.416;2023-07-20T06:45:07;20.10;58.90
81524;DHT22;70954;49.500;10.416;2023-07-20T06:47:32;20.20;59.20
81524;DHT22;70954;49.500;10.416;2023-07-20T06:49:58;20.30;58.90
81524;DHT22;70954;49.500;10.416;2023-07-20T06:52:23;20.30;58.60
81524;DHT22;70954;49.500;10.416;2023-07-20T06:54:48;20.40;58.40
81524;DHT22;70954;49.500;10.416;2023-07-20T06:57:14;20.50;58.00
81524;DHT22;70954;49.500;10.416;2023-07-20T06:59:39;20.50;57.80
81524;DHT22;70954;49.500;10.416;2023-07-20T07:02:05;20.60;57.90
81524;DHT22;70954;49.500;10.416;2023-07-20T07:04:31;20.60;57.70
81524;DHT22;70954;49.500;10.416;2023-07-20T07:06:57;20.70;57.60
81524;DHT22;70954;49.500;10.416;2023-07-20T07:09:22;20.70;57.60
81524;DHT22;70954;49.500;10.416;2023-07-20T07:11:48;20.80;57.40
81524;DHT22;70954;49.500;10.416;2023-07-20T07:14:13;20.90;57.30
81524;DHT22;70954;49.500;10.416;2023-07-20T07:16:39;21.00;57.10
81524;DHT22;70954;49.500;10.416;2023-07-20T07:19:04;21.00;57.00
81524;DHT22;70954;49.500;10.416;2023-07-20T07:21:29;21.10;56.60
81524;DHT22;70954;49.500;10.416;2023-07-20T07:23:55;21.10;56.20
81524;DHT22;70954;49.500;10.416;2023-07-20T07:26:20;21.20;56.30
81524;DHT22;70954;49.500;10.416;2023-07-20T07:28:46;21.30;55.90
81524;DHT22;70954;49.500;10.416;2023-07-20T07:31:11;21.30;55.50
81524;DHT22;70954;49.500;10.416;2023-07-20T07:33:37;21.40;55.40
81524;DHT22;70954;49.500;10.416;2023-07-20T07:36:02;21.50;54.90
81524;DHT22;70954;49.500;10.416;2023-07-20T07:38:28;21.50;54.80
81524;DHT22;70954;49.500;10.416;2023-07-20T07:40:54;21.50;54.70
81524;DHT22;70954;49.500;10.416;2023-07-20T07:43:19;21.70;54.30
81524;DHT22;70954;49.500;10.416;2023-07-20T07:45:45;21.70;53.70
81524;DHT22;70954;49.500;10.416;2023-07-20T07:48:10;21.70;53.60
81524;DHT22;70954;49.500;10.416;2023-07-20T07:50:35;21.80;53.30
81524;DHT22;70954;49.500;10.416;2023-07-20T07:53:01;21.90;53.10
81524;DHT22;70954;49.500;10.416;2023-07-20T07:55:26;21.90;53.00
81524;DHT22;70954;49.500;10.416;2023-07-20T07:57:52;21.90;53.10
81524;DHT22;70954;49.500;10.416;2023-07-20T08:00:18;22.00;52.60
81524;DHT22;70954;49.500;10.416;2023-07-20T08:02:47;22.00;52.30
81524;DHT22;70954;49.500;10.416;2023-07-20T08:05:13;22.10;52.00
81524;DHT22;70954;49.500;10.416;2023-07-20T08:07:38;22.20;52.60
81524;DHT22;70954;49.500;10.416;2023-07-20T08:10:04;22.20;52.00
81524;DHT22;70954;49.500;10.416;2023-07-20T08:12:30;22.30;52.00
81524;DHT22;70954;49.500;10.416;2023-07-20T08:14:55;22.50;52.00
81524;DHT22;70954;49.500;10.416;2023-07-20T08:17:21;22.50;52.00
81524;DHT22;70954;49.500;10.416;2023-07-20T08:19:46;22.60;51.50
81524;DHT22;70954;49.500;10.416;2023-07-20T08:22:12;22.70;50.60
81524;DHT22;70954;49.500;10.416;2023-07-20T08:24:41;22.80;50.30
81524;DHT22;70954;49.500;10.416;2023-07-20T08:27:07;22.90;50.50
81524;DHT22;70954;49.500;10.416;2023-07-20T08:29:32;22.90;48.00
81524;DHT22;70954;49.500;10.416;2023-07-20T08:31:58;23.00;48.70
81524;DHT22;70954;49.500;10.416;2023-07-20T08:34:23;23.00;48.60
81524;DHT22;70954;49.500;10.416;2023-07-20T08:36:49;23.10;48.80
81524;DHT22;70954;49.500;10.416;2023-07-20T08:39:14;23.10;48.20
81524;DHT22;70954;49.500;10.416;2023-07-20T08:41:42;23.10;48.30
81524;DHT22;70954;49.500;10.416;2023-07-20T08:44:08;23.20;48.90
81524;DHT22;70954;49.500;10.416;2023-07-20T08:46:35;23.20;48.60
81524;DHT22;70954;49.500;10.416;2023-07-20T08:49:00;23.30;48.50
81524;DHT22;70954;49.500;10.416;2023-07-20T08:51:26;23.40;47.80
81524;DHT22;70954;49.500;10.416;2023-07-20T08:53:52;23.40;47.00
81524;DHT22;70954;49.500;10.416;2023-07-20T08:56:18;23.50;46.40
81524;DHT22;70954;49.500;10.416;2023-07-20T08:58:45;23.50;46.30
81524;DHT22;70954;49.500;10.416;2023-07-20T09:01:11;23.60;45.70
81524;DHT22;70954;49.500;10.416;2023-07-20T09:03:38;23.60;45.70
81524;DHT22;70954;49.500;10.416;2023-07-20T09:06:03;23.60;45.70
81524;DHT22;70954;49.500;10.416;2023-07-20T09:08:29;23.60;45.90
81524;DHT22;70954;49.500;10.416;2023-07-20T09:10:54;23.60;45.00
81524;DHT22;70954;49.500;10.416;2023-07-20T09:13:20;23.60;45.00
81524;DHT22;70954;49.500;10.416;2023-07-20T09:15:46;23.60;43.70
81524;DHT22;70954;49.500;10.416;2023-07-20T09:18:12;23.60;43.70
81524;DHT22;70954;49.500;10.416;2023-07-20T09:20:48;23.60;44.10
81524;DHT22;70954;49.500;10.416;2023-07-20T09:23:13;23.60;43.60
81524;DHT22;70954;49.500;10.416;2023-07-20T09:25:40;23.60;43.50
81524;DHT22;70954;49.500;10.416;2023-07-20T09:28:06;23.60;43.50
81524;DHT22;70954;49.500;10.416;2023-07-20T09:30:31;23.60;43.20
81524;DHT22;70954;49.500;10.416;2023-07-20T09:32:58;23.60;43.00
81524;DHT22;70954;49.500;10.416;2023-07-20T09:35:24;23.60;43.70
81524;DHT22;70954;49.500;10.416;2023-07-20T09:37:52;23.60;43.50
81524;DHT22;70954;49.500;10.416;2023-07-20T09:40:18;23.70;43.00
81524;DHT22;70954;49.500;10.416;2023-07-20T09:42:44;23.80;43.20
81524;DHT22;70954;49.500;10.416;2023-07-20T09:45:10;23.80;42.80
81524;DHT22;70954;49.500;10.416;2023-07-20T09:47:37;23.90;42.80
81524;DHT22;70954;49.500;10.416;2023-07-20T09:50:03;23.90;42.00
81524;DHT22;70954;49.500;10.416;2023-07-20T09:52:29;23.90;42.00
81524;DHT22;70954;49.500;10.416;2023-07-20T09:54:55;23.90;41.70
81524;DHT22;70954;49.500;10.416;2023-07-20T09:57:21;23.90;41.50
81524;DHT22;70954;49.500;10.416;2023-07-20T09:59:47;23.90;41.80
81524;DHT22;70954;49.500;10.416;2023-07-20T10:02:25;24.00;42.10
81524;DHT22;70954;49.500;10.416;2023-07-20T10:04:56;24.00;40.70
81524;DHT22;70954;49.500;10.416;2023-07-20T10:07:27;24.00;41.40
81524;DHT22;70954;49.500;10.416;2023-07-20T10:09:55;24.20;40.90
81524;DHT22;70954;49.500;10.416;2023-07-20T10:12:22;24.10;40.50
81524;DHT22;70954;49.500;10.416;2023-07-20T10:15:09;24.20;40.50
81524;DHT22;70954;49.500;10.416;2023-07-20T10:17:38;24.20;39.40
81524;DHT22;70954;49.500;10.416;2023-07-20T10:20:06;24.20;41.30
81524;DHT22;70954;49.500;10.416;2023-07-20T10:22:36;24.20;41.30
81524;DHT22;70954;49.500;10.416;2023-07-20T10:25:02;24.20;40.40
81524;DHT22;70954;49.500;10.416;2023-07-20T10:27:28;24.20;40.20
81524;DHT22;70954;49.500;10.416;2023-07-20T10:29:53;24.20;40.30
81524;DHT22;70954;49.500;10.416;2023-07-20T10:32:20;24.30;39.70
81524;DHT22;70954;49.500;10.416;2023-07-20T10:34:52;24.40;39.00
81524;DHT22;70954;49.500;10.416;2023-07-20T10:37:52;24.40;38.40
81524;DHT22;70954;49.500;10.416;2023-07-20T10:40:33;24.40;36.60
81524;DHT22;70954;49.500;10.416;2023-07-20T10:42:59;24.40;37.60
81524;DHT22;70954;49.500;10.416;2023-07-20T10:48:17;24.50;38.20
81524;DHT22;70954;49.500;10.416;2023-07-20T10:50:43;24.60;38.70
81524;DHT22;70954;49.500;10.416;2023-07-20T10:53:16;24.70;38.60
81524;DHT22;70954;49.500;10.416;2023-07-20T10:55:42;24.80;38.90
81524;DHT22;70954;49.500;10.416;2023-07-20T11:00:37;25.00;37.80
81524;DHT22;70954;49.500;10.416;2023-07-20T11:03:04;25.00;36.90
81524;DHT22;70954;49.500;10.416;2023-07-20T11:05:34;25.00;37.20
81524;DHT22;70954;49.500;10.416;2023-07-20T11:08:00;25.00;37.30
81524;DHT22;70954;49.500;10.416;2023-07-20T11:10:25;25.00;37.60
81524;DHT22;70954;49.500;10.416;2023-07-20T11:16:05;25.20;35.90
81524;DHT22;70954;49.500;10.416;2023-07-20T11:18:33;25.30;36.80
81524;DHT22;70954;49.500;10.416;2023-07-20T11:20:59;25.40;36.90
81524;DHT22;70954;49.500;10.416;2023-07-20T11:23:24;25.50;36.80
81524;DHT22;70954;49.500;10.416;2023-07-20T11:25:50;25.50;36.20
81524;DHT22;70954;49.500;10.416;2023-07-20T11:28:15;25.60;36.40
81524;DHT22;70954;49.500;10.416;2023-07-20T11:30:41;25.60;36.50
81524;DHT22;70954;49.500;10.416;2023-07-20T11:33:09;25.60;36.40
81524;DHT22;70954;49.500;10.416;2023-07-20T11:35:36;25.60;35.70
81524;DHT22;70954;49.500;10.416;2023-07-20T11:38:07;25.60;36.20
81524;DHT22;70954;49.500;10.416;2023-07-20T11:40:32;25.60;36.00
81524;DHT22;70954;49.500;10.416;2023-07-20T11:42:58;25.80;35.90
81524;DHT22;70954;49.500;10.416;2023-07-20T11:45:23;25.80;35.60
81524;DHT22;70954;49.500;10.416;2023-07-20T11:47:49;25.90;35.60
81524;DHT22;70954;49.500;10.416;2023-07-20T11:50:15;26.00;35.50
81524;DHT22;70954;49.500;10.416;2023-07-20T11:52:40;26.00;35.60
81524;DHT22;70954;49.500;10.416;2023-07-20T11:55:07;26.00;35.50
81524;DHT22;70954;49.500;10.416;2023-07-20T11:57:32;26.10;35.20
81524;DHT22;70954;49.500;10.416;2023-07-20T12:00:01;26.10;34.10
81524;DHT22;70954;49.500;10.416;2023-07-20T12:02:27;26.10;33.90
81524;DHT22;70954;49.500;10.416;2023-07-20T12:04:54;26.20;33.70
81524;DHT22;70954;49.500;10.416;2023-07-20T12:07:21;26.20;33.50
81524;DHT22;70954;49.500;10.416;2023-07-20T12:10:15;26.20;33.50
81524;DHT22;70954;49.500;10.416;2023-07-20T12:12:43;26.20;32.40
81524;DHT22;70954;49.500;10.416;2023-07-20T12:15:24;26.20;33.30
81524;DHT22;70954;49.500;10.416;2023-07-20T12:17:52;26.30;32.70
81524;DHT22;70954;49.500;10.416;2023-07-20T12:23:02;26.40;33.80
81524;DHT22;70954;49.500;10.416;2023-07-20T12:25:41;26.40;33.90
81524;DHT22;70954;49.500;10.416;2023-07-20T12:28:14;26.50;31.90
81524;DHT22;70954;49.500;10.416;2023-07-20T12:30:42;26.60;33.20
81524;DHT22;70954;49.500;10.416;2023-07-20T12:33:08;26.60;33.70
81524;DHT22;70954;49.500;10.416;2023-07-20T12:35:34;26.70;34.00
81524;DHT22;70954;49.500;10.416;2023-07-20T12:38:00;26.80;33.80
81524;DHT22;70954;49.500;10.416;2023-07-20T12:40:25;26.90;33.20
81524;DHT22;70954;49.500;10.416;2023-07-20T12:42:51;26.90;32.70
81524;DHT22;70954;49.500;10.416;2023-07-20T12:45:17;26.90;33.00
81524;DHT22;70954;49.500;10.416;2023-07-20T12:47:43;26.90;32.70
81524;DHT22;70954;49.500;10.416;2023-07-20T12:50:09;26.90;31.80
81524;DHT22;70954;49.500;10.416;2023-07-20T12:52:37;26.90;31.70
81524;DHT22;70954;49.500;10.416;2023-07-20T12:55:02;26.90;32.00
81524;DHT22;70954;49.500;10.416;2023-07-20T12:57:28;26.90;31.70
81524;DHT22;70954;49.500;10.416;2023-07-20T12:59:53;26.90;31.40
81524;DHT22;70954;49.500;10.416;2023-07-20T13:02:19;26.90;31.30
81524;DHT22;70954;49.500;10.416;2023-07-20T13:04:44;26.90;31.60
81524;DHT22;70954;49.500;10.416;2023-07-20T13:07:10;26.80;31.90
81524;DHT22;70954;49.500;10.416;2023-07-20T13:09:36;26.80;31.10
81524;DHT22;70954;49.500;10.416;2023-07-20T13:12:01;26.80;31.00
81524;DHT22;70954;49.500;10.416;2023-07-20T13:14:27;26.70;30.70
81524;DHT22;70954;49.500;10.416;2023-07-20T13:16:52;26.70;31.00
81524;DHT22;70954;49.500;10.416;2023-07-20T13:19:17;26.60;31.40
81524;DHT22;70954;49.500;10.416;2023-07-20T13:21:43;26.60;31.90
81524;DHT22;70954;49.500;10.416;2023-07-20T13:24:08;26.70;31.90
81524;DHT22;70954;49.500;10.416;2023-07-20T13:26:34;26.60;31.80
81524;DHT22;70954;49.500;10.416;2023-07-20T13:28:59;26.70;31.60
81524;DHT22;70954;49.500;10.416;2023-07-20T13:31:25;26.70;31.80
81524;DHT22;70954;49.500;10.416;2023-07-20T13:33:50;26.70;32.00
81524;DHT22;70954;49.500;10.416;2023-07-20T13:36:15;26.70;31.90
81524;DHT22;70954;49.500;10.416;2023-07-20T13:38:41;26.70;31.50
81524;DHT22;70954;49.500;10.416;2023-07-20T13:41:06;26.60;31.10
81524;DHT22;70954;49.500;10.416;2023-07-20T13:43:32;26.60;31.60
81524;DHT22;70954;49.500;10.416;2023-07-20T13:45:57;26.70;31.50
81524;DHT22;70954;49.500;10.416;2023-07-20T13:48:23;26.60;31.40
81524;DHT22;70954;49.500;10.416;2023-07-20T13:50:48;26.60;31.50
81524;DHT22;70954;49.500;10.416;2023-07-20T13:53:14;26.60;31.80
81524;DHT22;70954;49.500;10.416;2023-07-20T13:55:39;26.60;31.90
81524;DHT22;70954;49.500;10.416;2023-07-20T13:58:05;26.60;32.00
81524;DHT22;70954;49.500;10.416;2023-07-20T14:00:30;26.60;31.90
81524;DHT22;70954;49.500;10.416;2023-07-20T14:02:56;26.60;31.90
81524;DHT22;70954;49.500;10.416;2023-07-20T14:05:21;26.60;31.80
81524;DHT22;70954;49.500;10.416;2023-07-20T14:07:47;26.60;31.80
81524;DHT22;70954;49.500;10.416;2023-07-20T14:10:12;26.60;31.90
81524;DHT22;70954;49.500;10.416;2023-07-20T14:12:37;26.70;31.80
81524;DHT22;70954;49.500;10.416;2023-07-20T14:15:03;26.70;31.80
81524;DHT22;70954;49.500;10.416;2023-07-20T14:17:29;26.70;31.70
81524;DHT22;70954;49.500;10.416;2023-07-20T14:19:54;26.80;31.70
81524;DHT22;70954;49.500;10.416;2023-07-20T14:22:20;26.80;31.60
81524;DHT22;70954;49.500;10.416;2023-07-20T14:24:45;26.80;31.40
81524;DHT22;70954;49.500;10.416;2023-07-20T14:27:11;26.80;31.50
81524;DHT22;70954;49.500;10.416;2023-07-20T14:29:36;26.80;30.90
81524;DHT22;70954;49.500;10.416;2023-07-20T14:32:02;26.80;30.80
81524;DHT22;70954;49.500;10.416;2023-07-20T14:34:27;26.80;31.30
81524;DHT22;70954;49.500;10.416;2023-07-20T14:36:53;26.80;31.30
81524;DHT22;70954;49.500;10.416;2023-07-20T14:39:18;26.80;31.40
81524;DHT22;70954;49.500;10.416;2023-07-20T14:41:44;26.80;31.50
81524;DHT22;70954;49.500;10.416;2023-07-20T14:44:09;26.80;31.70
81524;DHT22;70954;49.500;10.416;2023-07-20T14:46:35;26.80;31.70
81524;DHT22;70954;49.500;10.416;2023-07-20T14:49:00;26.80;31.30
81524;DHT22;70954;49.500;10.416;2023-07-20T14:51:26;26.80;31.20
81524;DHT22;70954;49.500;10.416;2023-07-20T14:53:51;26.80;31.10
81524;DHT22;70954;49.500;10.416;2023-07-20T14:56:17;26.80;31.00
81524;DHT22;70954;49.500;10.416;2023-07-20T14:58:42;26.80;29.80
81524;DHT22;70954;49.500;10.416;2023-07-20T15:01:07;26.80;30.00
81524;DHT22;70954;49.500;10.416;2023-07-20T15:03:33;26.80;30.00
81524;DHT22;70954;49.500;10.416;2023-07-20T15:05:58;26.80;29.70
81524;DHT22;70954;49.500;10.416;2023-07-20T15:08:24;26.80;29.80
81524;DHT22;70954;49.500;10.416;2023-07-20T15:10:49;26.80;29.70
81524;DHT22;70954;49.500;10.416;2023-07-20T15:13:15;26.80;29.30
81524;DHT22;70954;49.500;10.416;2023-07-20T15:15:40;26.80;29.30
81524;DHT22;70954;49.500;10.416;2023-07-20T15:18:06;26.80;29.40
81524;DHT22;70954;49.500;10.416;2023-07-20T15:20:31;26.80;29.40
81524;DHT22;70954;49.500;10.416;2023-07-20T15:22:57;26.80;29.70
81524;DHT22;70954;49.500;10.416;2023-07-20T15:25:22;26.80;29.90
81524;DHT22;70954;49.500;10.416;2023-07-20T15:27:48;26.90;30.00
81524;DHT22;70954;49.500;10.416;2023-07-20T15:30:13;26.90;29.70